sensor_id;sensor_type;location;lat;lon;timestamp;temperature;humidity
69206;SHT30;56319;48.920;2.332;2023-05-08T00:01:48;21.85;55.00
69206;SHT30;56319;48.920;2.332;2023-05-08T00:04:14;21.82;54.94
69206;SHT30;56319;48.920;2.332;2023-05-08T00:06:39;21.85;54.96
69206;SHT30;56319;48.920;2.332;2023-05-08T00:09:05;21.85;54.92
69206;SHT30;56319;48.920;2.332;2023-05-08T00:11:30;21.85;54.94
69206;SHT30;56319;48.920;2.332;2023-05-08T00:13:56;21.86;54.94
69206;SHT30;56319;48.920;2.332;2023-05-08T00:16:21;21.83;54.94
69206;SHT30;56319;48.920;2.332;2023-05-08T00:18:47;21.85;54.91
69206;SHT30;56319;48.920;2.332;2023-05-08T00:21:12;21.85;54.91
69206;SHT30;56319;48.920;2.332;2023-05-08T00:23:38;21.82;54.87
69206;SHT30;56319;48.920;2.332;2023-05-08T00:26:04;21.82;54.92
69206;SHT30;56319;48.920;2.332;2023-05-08T00:28:29;21.82;54.90
69206;SHT30;56319;48.920;2.332;2023-05-08T00:30:58;21.81;54.86
69206;SHT30;56319;48.920;2.332;2023-05-08T00:33:24;21.82;54.86
69206;SHT30;56319;48.920;2.332;2023-05-08T00:35:49;21.81;54.81
69206;SHT30;56319;48.920;2.332;2023-05-08T00:38:15;21.81;54.80
69206;SHT30;56319;48.920;2.332;2023-05-08T00:40:40;21.79;54.81
69206;SHT30;56319;48.920;2.332;2023-05-08T00:43:07;21.81;54.80
69206;SHT30;56319;48.920;2.332;2023-05-08T00:45:35;21.79;54.79
69206;SHT30;56319;48.920;2.332;2023-05-08T00:48:02;21.79;54.80
69206;SHT30;56319;48.920;2.332;2023-05-08T00:50:29;21.78;54.73
69206;SHT30;56319;48.920;2.332;2023-05-08T00:52:55;21.81;54.79
69206;SHT30;56319;48.920;2.332;2023-05-08T00:55:21;21.79;54.76
69206;SHT30;56319;48.920;2.332;2023-05-08T00:57:47;21.76;54.74
69206;SHT30;56319;48.920;2.332;2023-05-08T01:00:15;21.75;54.70
69206;SHT30;56319;48.920;2.332;2023-05-08T01:02:42;21.78;54.70
69206;SHT30;56319;48.920;2.332;2023-05-08T01:05:08;21.75;54.69
69206;SHT30;56319;48.920;2.332;2023-05-08T01:07:33;21.76;54.66
69206;SHT30;56319;48.920;2.332;2023-05-08T01:09:59;21.75;54.70
69206;SHT30;56319;48.920;2.332;2023-05-08T01:12:51;21.76;54.64
69206;SHT30;56319;48.920;2.332;2023-05-08T01:15:28;21.75;54.66
69206;SHT30;56319;48.920;2.332;2023-05-08T01:18:16;21.76;54.66
69206;SHT30;56319;48.920;2.332;2023-05-08T01:21:08;21.72;54.57
69206;SHT30;56319;48.920;2.332;2023-05-08T01:30:11;21.72;54.52
69206;SHT30;56319;48.920;2.332;2023-05-08T01:32:45;21.71;54.57
69206;SHT30;56319;48.920;2.332;2023-05-08T01:38:26;21.69;54.52
69206;SHT30;56319;48.920;2.332;2023-05-08T01:41:02;21.71;54.45
69206;SHT30;56319;48.920;2.332;2023-05-08T01:43:52;21.69;54.44
69206;SHT30;56319;48.920;2.332;2023-05-08T01:46:23;21.69;54.46
69206;SHT30;56319;48.920;2.332;2023-05-08T01:51:44;21.67;54.41
69206;SHT30;56319;48.920;2.332;2023-05-08T01:54:14;21.67;54.40
69206;SHT30;56319;48.920;2.332;2023-05-08T01:56:42;21.69;54.38
69206;SHT30;56319;48.920;2.332;2023-05-08T01:59:12;21.66;54.38
69206;SHT30;56319;48.920;2.332;2023-05-08T02:01:39;21.67;54.34
69206;SHT30;56319;48.920;2.332;2023-05-08T02:04:06;21.67;54.36
69206;SHT30;56319;48.920;2.332;2023-05-08T02:06:33;21.66;54.32
69206;SHT30;56319;48.920;2.332;2023-05-08T02:09:01;21.66;54.26
69206;SHT30;56319;48.920;2.332;2023-05-08T02:11:28;21.63;54.29
69206;SHT30;56319;48.920;2.332;2023-05-08T02:13:56;21.66;54.22
69206;SHT30;56319;48.920;2.332;2023-05-08T02:16:26;21.63;54.26
69206;SHT30;56319;48.920;2.332;2023-05-08T02:18:53;21.66;54.21
69206;SHT30;56319;48.920;2.332;2023-05-08T02:21:21;21.65;54.21
69206;SHT30;56319;48.920;2.332;2023-05-08T02:23:49;21.62;54.22
69206;SHT30;56319;48.920;2.332;2023-05-08T02:26:16;21.63;54.20
69206;SHT30;56319;48.920;2.332;2023-05-08T02:28:43;21.62;54.18
69206;SHT30;56319;48.920;2.332;2023-05-08T02:31:11;21.65;54.14
69206;SHT30;56319;48.920;2.332;2023-05-08T02:33:39;21.65;54.14
69206;SHT30;56319;48.920;2.332;2023-05-08T02:36:06;21.61;54.13
69206;SHT30;56319;48.920;2.332;2023-05-08T02:38:33;21.61;54.10
69206;SHT30;56319;48.920;2.332;2023-05-08T02:41:02;21.61;54.10
69206;SHT30;56319;48.920;2.332;2023-05-08T02:43:30;21.61;54.07
69206;SHT30;56319;48.920;2.332;2023-05-08T02:46:24;21.61;54.03
69206;SHT30;56319;48.920;2.332;2023-05-08T02:49:17;21.61;54.04
69206;SHT30;56319;48.920;2.332;2023-05-08T02:51:53;21.61;53.99
69206;SHT30;56319;48.920;2.332;2023-05-08T02:54:28;21.58;53.97
69206;SHT30;56319;48.920;2.332;2023-05-08T02:57:02;21.59;54.00
69206;SHT30;56319;48.920;2.332;2023-05-08T02:59:36;21.58;53.96
69206;SHT30;56319;48.920;2.332;2023-05-08T03:02:21;21.59;53.92
69206;SHT30;56319;48.920;2.332;2023-05-08T03:04:54;21.56;53.88
69206;SHT30;56319;48.920;2.332;2023-05-08T03:07:22;21.56;53.89
69206;SHT30;56319;48.920;2.332;2023-05-08T03:09:56;21.56;53.85
69206;SHT30;56319;48.920;2.332;2023-05-08T03:12:27;21.55;53.84
69206;SHT30;56319;48.920;2.332;2023-05-08T03:14:59;21.55;53.82
69206;SHT30;56319;48.920;2.332;2023-05-08T03:17:30;21.55;53.76
69206;SHT30;56319;48.920;2.332;2023-05-08T03:20:01;21.55;53.82
69206;SHT30;56319;48.920;2.332;2023-05-08T03:22:29;21.54;53.78
69206;SHT30;56319;48.920;2.332;2023-05-08T03:24:58;21.54;53.75
69206;SHT30;56319;48.920;2.332;2023-05-08T03:27:27;21.54;53.70
69206;SHT30;56319;48.920;2.332;2023-05-08T03:29:54;21.52;53.70
69206;SHT30;56319;48.920;2.332;2023-05-08T03:32:23;21.54;53.66
69206;SHT30;56319;48.920;2.332;2023-05-08T03:34:50;21.51;53.66
69206;SHT30;56319;48.920;2.332;2023-05-08T03:37:17;21.52;53.63
69206;SHT30;56319;48.920;2.332;2023-05-08T03:39:42;21.51;53.61
69206;SHT30;56319;48.920;2.332;2023-05-08T03:42:08;21.52;53.59
69206;SHT30;56319;48.920;2.332;2023-05-08T03:44:36;21.51;53.56
69206;SHT30;56319;48.920;2.332;2023-05-08T03:47:03;21.49;53.57
69206;SHT30;56319;48.920;2.332;2023-05-08T03:49:29;21.51;53.51
69206;SHT30;56319;48.920;2.332;2023-05-08T03:51:55;21.49;53.53
69206;SHT30;56319;48.920;2.332;2023-05-08T03:54:21;21.51;53.45
69206;SHT30;56319;48.920;2.332;2023-05-08T03:56:51;21.49;53.50
69206;SHT30;56319;48.920;2.332;2023-05-08T03:59:27;21.49;53.46
69206;SHT30;56319;48.920;2.332;2023-05-08T04:01:58;21.52;53.47
69206;SHT30;56319;48.920;2.332;2023-05-08T04:04:46;21.49;53.43
69206;SHT30;56319;48.920;2.332;2023-05-08T04:10:27;21.49;53.37
69206;SHT30;56319;48.920;2.332;2023-05-08T04:15:48;21.45;53.35
69206;SHT30;56319;48.920;2.332;2023-05-08T04:18:17;21.44;53.32
69206;SHT30;56319;48.920;2.332;2023-05-08T04:20:46;21.44;53.26
69206;SHT30;56319;48.920;2.332;2023-05-08T04:23:16;21.45;53.31
69206;SHT30;56319;48.920;2.332;2023-05-08T04:25:43;21.42;53.29
69206;SHT30;56319;48.920;2.332;2023-05-08T04:28:10;21.44;53.23
69206;SHT30;56319;48.920;2.332;2023-05-08T04:30:36;21.45;53.19
69206;SHT30;56319;48.920;2.332;2023-05-08T04:33:03;21.42;53.22
69206;SHT30;56319;48.920;2.332;2023-05-08T04:35:30;21.42;53.15
69206;SHT30;56319;48.920;2.332;2023-05-08T04:37:57;21.42;53.17
69206;SHT30;56319;48.920;2.332;2023-05-08T04:40:23;21.41;53.15
69206;SHT30;56319;48.920;2.332;2023-05-08T04:42:49;21.44;53.11
69206;SHT30;56319;48.920;2.332;2023-05-08T04:45:15;21.41;53.09
69206;SHT30;56319;48.920;2.332;2023-05-08T04:47:40;21.42;53.08
69206;SHT30;56319;48.920;2.332;2023-05-08T04:50:06;21.42;53.11
69206;SHT30;56319;48.920;2.332;2023-05-08T04:52:32;21.41;53.05
69206;SHT30;56319;48.920;2.332;2023-05-08T04:54:57;21.39;53.02
69206;SHT30;56319;48.920;2.332;2023-05-08T04:57:23;21.39;53.01
69206;SHT30;56319;48.920;2.332;2023-05-08T04:59:48;21.38;53.01
69206;SHT30;56319;48.920;2.332;2023-05-08T05:02:14;21.39;53.01
69206;SHT30;56319;48.920;2.332;2023-05-08T05:04:40;21.38;52.98
69206;SHT30;56319;48.920;2.332;2023-05-08T05:07:05;21.39;52.95
69206;SHT30;56319;48.920;2.332;2023-05-08T05:09:31;21.39;52.89
69206;SHT30;56319;48.920;2.332;2023-05-08T05:12:02;21.38;52.90
69206;SHT30;56319;48.920;2.332;2023-05-08T05:14:28;21.38;52.90
69206;SHT30;56319;48.920;2.332;2023-05-08T05:16:54;21.38;52.90
69206;SHT30;56319;48.920;2.332;2023-05-08T05:19:19;21.38;52.89
69206;SHT30;56319;48.920;2.332;2023-05-08T05:21:45;21.37;52.86
69206;SHT30;56319;48.920;2.332;2023-05-08T05:24:10;21.38;52.83
69206;SHT30;56319;48.920;2.332;2023-05-08T05:26:36;21.37;52.81
69206;SHT30;56319;48.920;2.332;2023-05-08T05:29:01;21.37;52.78
69206;SHT30;56319;48.920;2.332;2023-05-08T05:31:27;21.37;52.77
69206;SHT30;56319;48.920;2.332;2023-05-08T05:33:53;21.35;52.73
69206;SHT30;56319;48.920;2.332;2023-05-08T05:36:19;21.34;52.74
69206;SHT30;56319;48.920;2.332;2023-05-08T05:38:44;21.37;52.67
69206;SHT30;56319;48.920;2.332;2023-05-08T05:41:10;21.34;52.66
69206;SHT30;56319;48.920;2.332;2023-05-08T05:43:36;21.34;52.68
69206;SHT30;56319;48.920;2.332;2023-05-08T05:46:03;21.34;52.67
69206;SHT30;56319;48.920;2.332;2023-05-08T05:48:30;21.35;52.59
69206;SHT30;56319;48.920;2.332;2023-05-08T05:50:55;21.32;52.63
69206;SHT30;56319;48.920;2.332;2023-05-08T05:53:21;21.34;52.60
69206;SHT30;56319;48.920;2.332;2023-05-08T05:55:46;21.34;52.61
69206;SHT30;56319;48.920;2.332;2023-05-08T05:58:12;21.34;52.57
69206;SHT30;56319;48.920;2.332;2023-05-08T06:00:37;21.34;52.58
69206;SHT30;56319;48.920;2.332;2023-05-08T06:03:03;21.34;52.55
69206;SHT30;56319;48.920;2.332;2023-05-08T06:05:28;21.37;52.52
69206;SHT30;56319;48.920;2.332;2023-05-08T06:07:54;21.32;52.50
69206;SHT30;56319;48.920;2.332;2023-05-08T06:10:19;21.35;52.56
69206;SHT30;56319;48.920;2.332;2023-05-08T06:12:45;21.34;52.50
69206;SHT30;56319;48.920;2.332;2023-05-08T06:15:11;21.32;52.52
69206;SHT30;56319;48.920;2.332;2023-05-08T06:17:38;21.31;52.50
69206;SHT30;56319;48.920;2.332;2023-05-08T06:20:05;21.32;52.48
69206;SHT30;56319;48.920;2.332;2023-05-08T06:22:30;21.31;52.47
69206;SHT30;56319;48.920;2.332;2023-05-08T06:24:56;21.31;52.45
69206;SHT30;56319;48.920;2.332;2023-05-08T06:27:22;21.32;52.48
69206;SHT30;56319;48.920;2.332;2023-05-08T06:29:48;21.31;52.46
69206;SHT30;56319;48.920;2.332;2023-05-08T06:32:16;21.30;52.39
69206;SHT30;56319;48.920;2.332;2023-05-08T06:34:42;21.31;52.40
69206;SHT30;56319;48.920;2.332;2023-05-08T06:37:10;21.31;52.37
69206;SHT30;56319;48.920;2.332;2023-05-08T06:39:35;21.31;52.33
69206;SHT30;56319;48.920;2.332;2023-05-08T06:42:01;21.32;52.34
69206;SHT30;56319;48.920;2.332;2023-05-08T06:44:27;21.32;52.34
69206;SHT30;56319;48.920;2.332;2023-05-08T06:46:53;21.31;52.30
69206;SHT30;56319;48.920;2.332;2023-05-08T06:49:19;21.30;52.30
69206;SHT30;56319;48.920;2.332;2023-05-08T06:51:45;21.30;52.28
69206;SHT30;56319;48.920;2.332;2023-05-08T06:54:10;21.30;52.24
69206;SHT30;56319;48.920;2.332;2023-05-08T06:56:36;21.30;52.24
69206;SHT30;56319;48.920;2.332;2023-05-08T06:59:02;21.31;52.23
69206;SHT30;56319;48.920;2.332;2023-05-08T07:01:27;21.28;52.20
69206;SHT30;56319;48.920;2.332;2023-05-08T07:03:53;21.31;52.19
69206;SHT30;56319;48.920;2.332;2023-05-08T07:06:18;21.30;52.19
69206;SHT30;56319;48.920;2.332;2023-05-08T07:08:43;21.30;52.16
69206;SHT30;56319;48.920;2.332;2023-05-08T07:11:09;21.30;52.14
69206;SHT30;56319;48.920;2.332;2023-05-08T07:13:35;21.32;52.11
69206;SHT30;56319;48.920;2.332;2023-05-08T07:16:01;21.31;52.11
69206;SHT30;56319;48.920;2.332;2023-05-08T07:18:26;21.30;52.09
69206;SHT30;56319;48.920;2.332;2023-05-08T07:20:52;21.30;52.10
69206;SHT30;56319;48.920;2.332;2023-05-08T07:23:17;21.28;52.09
69206;SHT30;56319;48.920;2.332;2023-05-08T07:25:43;21.28;52.04
69206;SHT30;56319;48.920;2.332;2023-05-08T07:28:08;21.30;52.03
69206;SHT30;56319;48.920;2.332;2023-05-08T07:30:34;21.30;52.00
69206;SHT30;56319;48.920;2.332;2023-05-08T07:33:00;21.27;52.01
69206;SHT30;56319;48.920;2.332;2023-05-08T07:35:26;21.31;52.01
69206;SHT30;56319;48.920;2.332;2023-05-08T07:37:51;21.30;51.99
69206;SHT30;56319;48.920;2.332;2023-05-08T07:40:17;21.28;51.97
69206;SHT30;56319;48.920;2.332;2023-05-08T07:42:43;21.30;51.99
69206;SHT30;56319;48.920;2.332;2023-05-08T07:45:10;21.30;51.92
69206;SHT30;56319;48.920;2.332;2023-05-08T07:47:37;21.34;51.95
69206;SHT30;56319;48.920;2.332;2023-05-08T07:50:03;21.30;51.93
69206;SHT30;56319;48.920;2.332;2023-05-08T07:52:29;21.28;51.86
69206;SHT30;56319;48.920;2.332;2023-05-08T07:54:54;21.30;51.92
69206;SHT30;56319;48.920;2.332;2023-05-08T07:57:20;21.31;51.87
69206;SHT30;56319;48.920;2.332;2023-05-08T07:59:45;21.31;51.86
69206;SHT30;56319;48.920;2.332;2023-05-08T08:02:11;21.30;51.85
69206;SHT30;56319;48.920;2.332;2023-05-08T08:04:36;21.34;51.83
69206;SHT30;56319;48.920;2.332;2023-05-08T08:07:02;21.31;51.82
69206;SHT30;56319;48.920;2.332;2023-05-08T08:09:27;21.32;51.84
69206;SHT30;56319;48.920;2.332;2023-05-08T08:11:53;21.32;51.79
69206;SHT30;56319;48.920;2.332;2023-05-08T08:14:18;21.31;51.77
69206;SHT30;56319;48.920;2.332;2023-05-08T08:16:44;21.31;51.79
69206;SHT30;56319;48.920;2.332;2023-05-08T08:19:09;21.34;51.77
69206;SHT30;56319;48.920;2.332;2023-05-08T08:21:35;21.32;51.76
69206;SHT30;56319;48.920;2.332;2023-05-08T08:24:01;21.34;51.70
69206;SHT30;56319;48.920;2.332;2023-05-08T08:26:26;21.32;51.73
69206;SHT30;56319;48.920;2.332;2023-05-08T08:28:52;21.35;51.72
69206;SHT30;56319;48.920;2.332;2023-05-08T08:31:17;21.32;51.71
69206;SHT30;56319;48.920;2.332;2023-05-08T08:33:44;21.34;51.72
69206;SHT30;56319;48.920;2.332;2023-05-08T08:36:12;21.35;51.72
69206;SHT30;56319;48.920;2.332;2023-05-08T08:38:38;21.31;51.69
69206;SHT30;56319;48.920;2.332;2023-05-08T08:41:03;21.37;51.71
69206;SHT30;56319;48.920;2.332;2023-05-08T08:43:29;21.35;51.67
69206;SHT30;56319;48.920;2.332;2023-05-08T08:45:55;21.35;51.67
69206;SHT30;56319;48.920;2.332;2023-05-08T08:48:26;21.35;51.63
69206;SHT30;56319;48.920;2.332;2023-05-08T08:50:58;21.35;51.63
69206;SHT30;56319;48.920;2.332;2023-05-08T08:53:26;21.35;51.60
69206;SHT30;56319;48.920;2.332;2023-05-08T08:55:57;21.37;51.55
69206;SHT30;56319;48.920;2.332;2023-05-08T08:58:47;21.37;51.59
69206;SHT30;56319;48.920;2.332;2023-05-08T09:01:17;21.38;51.58
69206;SHT30;56319;48.920;2.332;2023-05-08T09:03:43;21.37;51.56
69206;SHT30;56319;48.920;2.332;2023-05-08T09:06:10;21.37;51.53
69206;SHT30;56319;48.920;2.332;2023-05-08T09:08:36;21.37;51.55
69206;SHT30;56319;48.920;2.332;2023-05-08T09:11:02;21.37;51.57
69206;SHT30;56319;48.920;2.332;2023-05-08T09:13:28;21.38;51.55
69206;SHT30;56319;48.920;2.332;2023-05-08T09:15:56;21.38;51.58
69206;SHT30;56319;48.920;2.332;2023-05-08T09:18:22;21.37;51.56
69206;SHT30;56319;48.920;2.332;2023-05-08T09:20:49;21.37;51.57
69206;SHT30;56319;48.920;2.332;2023-05-08T09:23:16;21.35;51.56
69206;SHT30;56319;48.920;2.332;2023-05-08T09:25:44;21.37;51.56
69206;SHT30;56319;48.920;2.332;2023-05-08T09:28:30;21.35;51.52
69206;SHT30;56319;48.920;2.332;2023-05-08T09:30:58;21.35;51.52
69206;SHT30;56319;48.920;2.332;2023-05-08T09:33:25;21.38;51.52
69206;SHT30;56319;48.920;2.332;2023-05-08T09:35:52;21.34;51.51
69206;SHT30;56319;48.920;2.332;2023-05-08T09:38:38;21.35;51.54
69206;SHT30;56319;48.920;2.332;2023-05-08T09:41:10;21.37;51.53
69206;SHT30;56319;48.920;2.332;2023-05-08T09:43:36;21.31;51.51
69206;SHT30;56319;48.920;2.332;2023-05-08T09:46:22;21.38;51.47
69206;SHT30;56319;48.920;2.332;2023-05-08T09:48:50;21.35;51.48
69206;SHT30;56319;48.920;2.332;2023-05-08T09:51:16;21.37;51.47
69206;SHT30;56319;48.920;2.332;2023-05-08T09:53:43;21.37;51.46
69206;SHT30;56319;48.920;2.332;2023-05-08T09:56:09;21.37;51.41
69206;SHT30;56319;48.920;2.332;2023-05-08T09:58:38;21.39;51.40
69206;SHT30;56319;48.920;2.332;2023-05-08T10:01:05;21.42;51.37
69206;SHT30;56319;48.920;2.332;2023-05-08T10:03:51;21.41;51.36
69206;SHT30;56319;48.920;2.332;2023-05-08T10:06:17;21.41;51.33
69206;SHT30;56319;48.920;2.332;2023-05-08T10:08:44;21.42;51.26
69206;SHT30;56319;48.920;2.332;2023-05-08T10:11:13;21.45;51.28
69206;SHT30;56319;48.920;2.332;2023-05-08T10:13:41;21.48;51.25
69206;SHT30;56319;48.920;2.332;2023-05-08T10:16:07;21.48;51.20
69206;SHT30;56319;48.920;2.332;2023-05-08T10:18:38;21.49;51.17
69206;SHT30;56319;48.920;2.332;2023-05-08T10:21:05;21.49;51.13
69206;SHT30;56319;48.920;2.332;2023-05-08T10:23:33;21.51;51.10
69206;SHT30;56319;48.920;2.332;2023-05-08T10:26:07;21.54;51.07
69206;SHT30;56319;48.920;2.332;2023-05-08T10:31:27;21.55;51.03
69206;SHT30;56319;48.920;2.332;2023-05-08T10:33:55;21.55;51.03
69206;SHT30;56319;48.920;2.332;2023-05-08T10:36:22;21.59;50.97
69206;SHT30;56319;48.920;2.332;2023-05-08T10:38:49;21.62;50.96
69206;SHT30;56319;48.920;2.332;2023-05-08T10:41:14;21.62;50.92
69206;SHT30;56319;48.920;2.332;2023-05-08T10:43:41;21.63;50.90
69206;SHT30;56319;48.920;2.332;2023-05-08T10:46:17;21.66;50.89
69206;SHT30;56319;48.920;2.332;2023-05-08T10:49:04;21.67;50.82
69206;SHT30;56319;48.920;2.332;2023-05-08T10:51:42;21.71;50.79
69206;SHT30;56319;48.920;2.332;2023-05-08T10:54:18;21.69;50.76
69206;SHT30;56319;48.920;2.332;2023-05-08T10:56:48;21.69;50.75
69206;SHT30;56319;48.920;2.332;2023-05-08T10:59:18;21.73;50.75
69206;SHT30;56319;48.920;2.332;2023-05-08T11:01:47;21.73;50.71
69206;SHT30;56319;48.920;2.332;2023-05-08T11:04:33;21.73;50.70
69206;SHT30;56319;48.920;2.332;2023-05-08T11:06:59;21.78;50.65
69206;SHT30;56319;48.920;2.332;2023-05-08T11:09:28;21.79;50.64
69206;SHT30;56319;48.920;2.332;2023-05-08T11:12:17;21.78;50.60
69206;SHT30;56319;48.920;2.332;2023-05-08T11:14:54;21.81;50.63
69206;SHT30;56319;48.920;2.332;2023-05-08T11:17:23;21.81;50.58
69206;SHT30;56319;48.920;2.332;2023-05-08T11:20:09;21.82;50.53
69206;SHT30;56319;48.920;2.332;2023-05-08T11:22:35;21.83;50.54
69206;SHT30;56319;48.920;2.332;2023-05-08T11:25:07;21.85;50.53
69206;SHT30;56319;48.920;2.332;2023-05-08T11:30:43;21.86;50.47
69206;SHT30;56319;48.920;2.332;2023-05-08T11:33:12;21.88;50.53
69206;SHT30;56319;48.920;2.332;2023-05-08T11:35:45;21.90;50.37
69206;SHT30;56319;48.920;2.332;2023-05-08T11:38:17;21.90;50.39
69206;SHT30;56319;48.920;2.332;2023-05-08T11:40:45;21.94;50.38
69206;SHT30;56319;48.920;2.332;2023-05-08T11:46:00;21.96;50.32
69206;SHT30;56319;48.920;2.332;2023-05-08T11:48:26;21.96;50.30
69206;SHT30;56319;48.920;2.332;2023-05-08T11:50:52;21.99;50.25
69206;SHT30;56319;48.920;2.332;2023-05-08T11:53:17;22.01;50.25
69206;SHT30;56319;48.920;2.332;2023-05-08T11:55:47;22.01;50.24
69206;SHT30;56319;48.920;2.332;2023-05-08T11:58:14;22.04;50.16
69206;SHT30;56319;48.920;2.332;2023-05-08T12:00:40;22.03;50.19
69206;SHT30;56319;48.920;2.332;2023-05-08T12:03:12;22.09;50.19
69206;SHT30;56319;48.920;2.332;2023-05-08T12:05:38;22.09;50.17
69206;SHT30;56319;48.920;2.332;2023-05-08T12:08:06;22.13;50.12
69206;SHT30;56319;48.920;2.332;2023-05-08T12:10:32;22.14;50.04
69206;SHT30;56319;48.920;2.332;2023-05-08T12:13:14;22.17;50.03
69206;SHT30;56319;48.920;2.332;2023-05-08T12:15:41;22.21;49.94
69206;SHT30;56319;48.920;2.332;2023-05-08T12:18:06;22.27;49.89
69206;SHT30;56319;48.920;2.332;2023-05-08T12:20:32;22.30;49.79
69206;SHT30;56319;48.920;2.332;2023-05-08T12:23:01;22.30;49.81
69206;SHT30;56319;48.920;2.332;2023-05-08T12:25:27;22.34;49.72
69206;SHT30;56319;48.920;2.332;2023-05-08T12:27:53;22.38;49.69
69206;SHT30;56319;48.920;2.332;2023-05-08T12:30:18;22.43;49.65
69206;SHT30;56319;48.920;2.332;2023-05-08T12:32:45;22.41;49.62
69206;SHT30;56319;48.920;2.332;2023-05-08T12:35:12;22.43;49.61
69206;SHT30;56319;48.920;2.332;2023-05-08T12:37:38;22.41;49.62
69206;SHT30;56319;48.920;2.332;2023-05-08T12:40:05;22.44;49.57
69206;SHT30;56319;48.920;2.332;2023-05-08T12:42:51;22.47;49.56
69206;SHT30;56319;48.920;2.332;2023-05-08T12:45:20;22.45;49.55
69206;SHT30;56319;48.920;2.332;2023-05-08T12:47:48;22.47;49.55
69206;SHT30;56319;48.920;2.332;2023-05-08T12:50:17;22.48;49.51
69206;SHT30;56319;48.920;2.332;2023-05-08T12:52:43;22.47;49.50
69206;SHT30;56319;48.920;2.332;2023-05-08T12:55:29;22.47;49.52
69206;SHT30;56319;48.920;2.332;2023-05-08T12:58:01;22.51;49.45
69206;SHT30;56319;48.920;2.332;2023-05-08T13:00:48;22.52;49.41
69206;SHT30;56319;48.920;2.332;2023-05-08T13:03:35;22.52;49.45
69206;SHT30;56319;48.920;2.332;2023-05-08T13:06:04;22.56;49.40
69206;SHT30;56319;48.920;2.332;2023-05-08T13:08:34;22.51;49.38
69206;SHT30;56319;48.920;2.332;2023-05-08T13:11:01;22.56;49.36
69206;SHT30;56319;48.920;2.332;2023-05-08T13:13:29;22.55;49.39
69206;SHT30;56319;48.920;2.332;2023-05-08T13:15:55;22.55;49.40
69206;SHT30;56319;48.920;2.332;2023-05-08T13:18:23;22.54;49.38
69206;SHT30;56319;48.920;2.332;2023-05-08T13:20:49;22.55;49.40
69206;SHT30;56319;48.920;2.332;2023-05-08T13:23:14;22.54;49.41
69206;SHT30;56319;48.920;2.332;2023-05-08T13:25:40;22.49;49.42
69206;SHT30;56319;48.920;2.332;2023-05-08T13:28:08;22.51;49.42
69206;SHT30;56319;48.920;2.332;2023-05-08T13:30:34;22.49;49.39
69206;SHT30;56319;48.920;2.332;2023-05-08T13:33:01;22.51;49.41
69206;SHT30;56319;48.920;2.332;2023-05-08T13:35:27;22.48;49.41
69206;SHT30;56319;48.920;2.332;2023-05-08T13:37:53;22.45;49.45
69206;SHT30;56319;48.920;2.332;2023-05-08T13:40:19;22.44;49.45
69206;SHT30;56319;48.920;2.332;2023-05-08T13:42:44;22.43;49.50
69206;SHT30;56319;48.920;2.332;2023-05-08T13:45:10;22.43;49.49
69206;SHT30;56319;48.920;2.332;2023-05-08T13:47:38;22.43;49.55
69206;SHT30;56319;48.920;2.332;2023-05-08T13:50:04;22.40;49.58
69206;SHT30;56319;48.920;2.332;2023-05-08T13:52:30;22.38;49.53
69206;SHT30;56319;48.920;2.332;2023-05-08T13:54:56;22.37;49.63
69206;SHT30;56319;48.920;2.332;2023-05-08T13:57:22;22.37;49.60
69206;SHT30;56319;48.920;2.332;2023-05-08T13:59:48;22.34;49.62
69206;SHT30;56319;48.920;2.332;2023-05-08T14:02:14;22.35;49.67
69206;SHT30;56319;48.920;2.332;2023-05-08T14:04:39;22.31;49.63
69206;SHT30;56319;48.920;2.332;2023-05-08T14:07:05;22.34;49.60
69206;SHT30;56319;48.920;2.332;2023-05-08T14:09:31;22.31;49.66
69206;SHT30;56319;48.920;2.332;2023-05-08T14:11:57;22.31;49.58
69206;SHT30;56319;48.920;2.332;2023-05-08T14:14:22;22.33;49.63
69206;SHT30;56319;48.920;2.332;2023-05-08T14:16:48;22.30;49.61
69206;SHT30;56319;48.920;2.332;2023-05-08T14:19:15;22.31;49.65
69206;SHT30;56319;48.920;2.332;2023-05-08T14:21:41;22.31;49.64
69206;SHT30;56319;48.920;2.332;2023-05-08T14:24:08;22.33;49.63
69206;SHT30;56319;48.920;2.332;2023-05-08T14:26:33;22.33;49.63
69206;SHT30;56319;48.920;2.332;2023-05-08T14:28:59;22.31;49.63
69206;SHT30;56319;48.920;2.332;2023-05-08T14:31:24;22.33;49.63
69206;SHT30;56319;48.920;2.332;2023-05-08T14:33:50;22.31;49.67
69206;SHT30;56319;48.920;2.332;2023-05-08T14:36:15;22.31;49.65
69206;SHT30;56319;48.920;2.332;2023-05-08T14:38:41;22.31;49.65
69206;SHT30;56319;48.920;2.332;2023-05-08T14:41:06;22.31;49.66
69206;SHT30;56319;48.920;2.332;2023-05-08T14:43:32;22.28;49.66
69206;SHT30;56319;48.920;2.332;2023-05-08T14:45:57;22.30;49.67
69206;SHT30;56319;48.920;2.332;2023-05-08T14:48:23;22.27;49.67
69206;SHT30;56319;48.920;2.332;2023-05-08T14:50:48;22.28;49.66
69206;SHT30;56319;48.920;2.332;2023-05-08T14:53:14;22.28;49.70
69206;SHT30;56319;48.920;2.332;2023-05-08T14:55:39;22.28;49.71
69206;SHT30;56319;48.920;2.332;2023-05-08T14:58:05;22.25;49.77
69206;SHT30;56319;48.920;2.332;2023-05-08T15:02:56;22.22;49.74
69206;SHT30;56319;48.920;2.332;2023-05-08T15:05:22;22.24;49.72
69206;SHT30;56319;48.920;2.332;2023-05-08T15:07:47;22.21;49.74
69206;SHT30;56319;48.920;2.332;2023-05-08T15:10:14;22.22;49.80
69206;SHT30;56319;48.920;2.332;2023-05-08T15:12:40;22.22;49.80
69206;SHT30;56319;48.920;2.332;2023-05-08T15:15:06;22.21;49.77
69206;SHT30;56319;48.920;2.332;2023-05-08T15:17:31;22.21;49.82
69206;SHT30;56319;48.920;2.332;2023-05-08T15:20:01;22.21;49.81
69206;SHT30;56319;48.920;2.332;2023-05-08T15:22:27;22.18;49.77
69206;SHT30;56319;48.920;2.332;2023-05-08T15:24:53;22.17;49.81
69206;SHT30;56319;48.920;2.332;2023-05-08T15:27:18;22.17;49.86
69206;SHT30;56319;48.920;2.332;2023-05-08T15:29:43;22.17;49.83
69206;SHT30;56319;48.920;2.332;2023-05-08T15:32:09;22.18;49.87
69206;SHT30;56319;48.920;2.332;2023-05-08T15:34:35;22.16;49.89
69206;SHT30;56319;48.920;2.332;2023-05-08T15:37:00;22.16;49.88
69206;SHT30;56319;48.920;2.332;2023-05-08T15:39:26;22.16;49.89
69206;SHT30;56319;48.920;2.332;2023-05-08T15:41:51;22.13;49.93
69206;SHT30;56319;48.920;2.332;2023-05-08T15:44:18;22.13;49.87
69206;SHT30;56319;48.920;2.332;2023-05-08T15:46:43;22.16;49.88
69206;SHT30;56319;48.920;2.332;2023-05-08T15:49:09;22.13;49.89
69206;SHT30;56319;48.920;2.332;2023-05-08T15:51:34;22.13;49.93
69206;SHT30;56319;48.920;2.332;2023-05-08T15:54:00;22.14;49.90
69206;SHT30;56319;48.920;2.332;2023-05-08T15:56:25;22.13;49.95
69206;SHT30;56319;48.920;2.332;2023-05-08T15:58:51;22.13;49.94
69206;SHT30;56319;48.920;2.332;2023-05-08T16:01:17;22.11;49.97
69206;SHT30;56319;48.920;2.332;2023-05-08T16:03:43;22.11;49.95
69206;SHT30;56319;48.920;2.332;2023-05-08T16:06:08;22.11;49.92